sensor_id;sensor_type;location;lat;lon;timestamp;temperature;humidity
15937;DHT22;9163;48.818;8.976;2023-01-29T00:01:51;-1.10;99.90
15937;DHT22;9163;48.818;8.976;2023-01-29T00:04:18;-1.10;99.90
15937;DHT22;9163;48.818;8.976;2023-01-29T00:06:46;-1.00;99.90
15937;DHT22;9163;48.818;8.976;2023-01-29T00:09:13;-1.10;99.90
15937;DHT22;9163;48.818;8.976;2023-01-29T00:11:40;-1.00;99.90
15937;DHT22;9163;48.818;8.976;2023-01-29T00:14:07;-1.00;99.90
15937;DHT22;9163;48.818;8.976;2023-01-29T00:16:35;-1.00;99.90
15937;DHT22;9163;48.818;8.976;2023-01-29T00:19:03;-1.10;99.90
15937;DHT22;9163;48.818;8.976;2023-01-29T00:21:30;-1.10;99.90
15937;DHT22;9163;48.818;8.976;2023-01-29T00:23:59;-1.10;99.90
15937;DHT22;9163;48.818;8.976;2023-01-29T00:26:26;-1.10;99.90
15937;DHT22;9163;48.818;8.976;2023-01-29T00:28:54;-1.10;99.90
15937;DHT22;9163;48.818;8.976;2023-01-29T00:31:26;-1.10;99.90
15937;DHT22;9163;48.818;8.976;2023-01-29T00:33:53;-1.10;99.90
15937;DHT22;9163;48.818;8.976;2023-01-29T00:36:22;-1.10;99.90
15937;DHT22;9163;48.818;8.976;2023-01-29T00:38:53;-1.10;99.90
15937;DHT22;9163;48.818;8.976;2023-01-29T00:41:25;-1.10;99.90
15937;DHT22;9163;48.818;8.976;2023-01-29T00:44:11;-1.10;99.90
15937;DHT22;9163;48.818;8.976;2023-01-29T00:46:56;-1.10;99.90
15937;DHT22;9163;48.818;8.976;2023-01-29T00:49:23;-1.10;99.90
15937;DHT22;9163;48.818;8.976;2023-01-29T00:51:52;-1.10;99.90
15937;DHT22;9163;48.818;8.976;2023-01-29T00:54:37;-1.20;99.90
15937;DHT22;9163;48.818;8.976;2023-01-29T00:57:04;-1.30;99.90
15937;DHT22;9163;48.818;8.976;2023-01-29T00:59:31;-1.20;99.90
15937;DHT22;9163;48.818;8.976;2023-01-29T01:01:58;-1.20;99.90
15937;DHT22;9163;48.818;8.976;2023-01-29T01:04:43;-1.10;99.90
15937;DHT22;9163;48.818;8.976;2023-01-29T01:07:11;-1.20;99.90
15937;DHT22;9163;48.818;8.976;2023-01-29T01:09:39;-1.20;99.90
15937;DHT22;9163;48.818;8.976;2023-01-29T01:12:23;-1.10;99.90
15937;DHT22;9163;48.818;8.976;2023-01-29T01:14:51;-1.10;99.90
15937;DHT22;9163;48.818;8.976;2023-01-29T01:17:18;-1.20;99.90
15937;DHT22;9163;48.818;8.976;2023-01-29T01:19:45;-1.10;99.90
15937;DHT22;9163;48.818;8.976;2023-01-29T01:22:14;-1.10;99.90
15937;DHT22;9163;48.818;8.976;2023-01-29T01:24:42;-1.10;99.90
15937;DHT22;9163;48.818;8.976;2023-01-29T01:27:09;-1.10;99.90
15937;DHT22;9163;48.818;8.976;2023-01-29T01:29:36;-1.20;99.90
15937;DHT22;9163;48.818;8.976;2023-01-29T01:32:04;-1.20;99.90
15937;DHT22;9163;48.818;8.976;2023-01-29T01:34:31;-1.20;99.90
15937;DHT22;9163;48.818;8.976;2023-01-29T01:36:59;-1.20;99.90
15937;DHT22;9163;48.818;8.976;2023-01-29T01:39:27;-1.30;99.90
15937;DHT22;9163;48.818;8.976;2023-01-29T01:41:54;-1.20;99.90
15937;DHT22;9163;48.818;8.976;2023-01-29T01:44:51;-1.20;99.90
15937;DHT22;9163;48.818;8.976;2023-01-29T01:47:22;-1.20;99.90
15937;DHT22;9163;48.818;8.976;2023-01-29T01:49:51;-1.20;99.90
15937;DHT22;9163;48.818;8.976;2023-01-29T01:52:19;-1.30;99.90
15937;DHT22;9163;48.818;8.976;2023-01-29T01:54:50;-1.20;99.90
15937;DHT22;9163;48.818;8.976;2023-01-29T01:57:20;-1.30;99.90
15937;DHT22;9163;48.818;8.976;2023-01-29T01:59:54;-1.30;99.90
15937;DHT22;9163;48.818;8.976;2023-01-29T02:02:23;-1.30;99.90
15937;DHT22;9163;48.818;8.976;2023-01-29T02:05:11;-1.30;99.90
15937;DHT22;9163;48.818;8.976;2023-01-29T02:07:57;-1.40;99.90
15937;DHT22;9163;48.818;8.976;2023-01-29T02:10:45;-1.40;99.90
15937;DHT22;9163;48.818;8.976;2023-01-29T02:13:13;-1.40;99.90
15937;DHT22;9163;48.818;8.976;2023-01-29T02:15:42;-1.40;99.90
15937;DHT22;9163;48.818;8.976;2023-01-29T02:18:12;-1.40;99.90
15937;DHT22;9163;48.818;8.976;2023-01-29T02:20:41;-1.40;99.90
15937;DHT22;9163;48.818;8.976;2023-01-29T02:23:30;-1.30;99.90
15937;DHT22;9163;48.818;8.976;2023-01-29T02:26:38;-1.40;99.90
15937;DHT22;9163;48.818;8.976;2023-01-29T02:29:10;-1.40;99.90
15937;DHT22;9163;48.818;8.976;2023-01-29T02:32:07;-1.40;99.90
15937;DHT22;9163;48.818;8.976;2023-01-29T02:34:45;-1.40;99.90
15937;DHT22;9163;48.818;8.976;2023-01-29T02:37:34;-1.40;99.90
15937;DHT22;9163;48.818;8.976;2023-01-29T02:40:08;-1.40;99.90
15937;DHT22;9163;48.818;8.976;2023-01-29T02:42:43;-1.40;99.90
15937;DHT22;9163;48.818;8.976;2023-01-29T02:45:16;-1.40;99.90
15937;DHT22;9163;48.818;8.976;2023-01-29T02:47:47;-1.40;99.90
15937;DHT22;9163;48.818;8.976;2023-01-29T02:50:28;-1.40;99.90
15937;DHT22;9163;48.818;8.976;2023-01-29T02:53:00;-1.40;99.90
15937;DHT22;9163;48.818;8.976;2023-01-29T02:55:34;-1.30;99.90
15937;DHT22;9163;48.818;8.976;2023-01-29T02:58:07;-1.30;99.90
15937;DHT22;9163;48.818;8.976;2023-01-29T03:00:39;-1.40;99.90
15937;DHT22;9163;48.818;8.976;2023-01-29T03:03:11;-1.40;99.90
15937;DHT22;9163;48.818;8.976;2023-01-29T03:05:44;-1.40;99.90
15937;DHT22;9163;48.818;8.976;2023-01-29T03:08:20;-1.30;99.90
15937;DHT22;9163;48.818;8.976;2023-01-29T03:10:54;-1.40;99.90
15937;DHT22;9163;48.818;8.976;2023-01-29T03:13:28;-1.40;99.90
15937;DHT22;9163;48.818;8.976;2023-01-29T03:16:00;-1.50;99.90
15937;DHT22;9163;48.818;8.976;2023-01-29T03:18:32;-1.50;99.90
15937;DHT22;9163;48.818;8.976;2023-01-29T03:21:07;-1.50;99.90
15937;DHT22;9163;48.818;8.976;2023-01-29T03:23:52;-1.40;99.90
15937;DHT22;9163;48.818;8.976;2023-01-29T03:26:39;-1.40;99.90
15937;DHT22;9163;48.818;8.976;2023-01-29T03:29:26;-1.40;99.90
15937;DHT22;9163;48.818;8.976;2023-01-29T03:32:15;-1.50;99.90
15937;DHT22;9163;48.818;8.976;2023-01-29T03:34:46;-1.50;99.90
15937;DHT22;9163;48.818;8.976;2023-01-29T03:37:21;-1.50;99.90
15937;DHT22;9163;48.818;8.976;2023-01-29T03:39:50;-1.40;99.90
15937;DHT22;9163;48.818;8.976;2023-01-29T03:42:23;-1.50;99.90
15937;DHT22;9163;48.818;8.976;2023-01-29T03:45:01;-1.60;99.90
15937;DHT22;9163;48.818;8.976;2023-01-29T03:47:42;-1.70;99.90
15937;DHT22;9163;48.818;8.976;2023-01-29T03:50:19;-1.80;99.90
15937;DHT22;9163;48.818;8.976;2023-01-29T03:52:53;-1.70;99.90
15937;DHT22;9163;48.818;8.976;2023-01-29T03:55:32;-1.60;99.90
15937;DHT22;9163;48.818;8.976;2023-01-29T03:58:04;-1.60;99.90
15937;DHT22;9163;48.818;8.976;2023-01-29T04:00:39;-1.60;99.90
15937;DHT22;9163;48.818;8.976;2023-01-29T04:03:13;-1.60;99.90
15937;DHT22;9163;48.818;8.976;2023-01-29T04:05:46;-1.70;99.90
15937;DHT22;9163;48.818;8.976;2023-01-29T04:08:21;-1.60;99.90
15937;DHT22;9163;48.818;8.976;2023-01-29T04:10:50;-1.50;99.90
15937;DHT22;9163;48.818;8.976;2023-01-29T04:13:19;-1.50;99.90
15937;DHT22;9163;48.818;8.976;2023-01-29T04:15:52;-1.50;99.90
15937;DHT22;9163;48.818;8.976;2023-01-29T04:18:22;-1.50;99.90
15937;DHT22;9163;48.818;8.976;2023-01-29T04:20:50;-1.50;99.90
15937;DHT22;9163;48.818;8.976;2023-01-29T04:23:22;-1.50;99.90
15937;DHT22;9163;48.818;8.976;2023-01-29T04:25:57;-1.50;99.90
15937;DHT22;9163;48.818;8.976;2023-01-29T04:28:45;-1.50;99.90
15937;DHT22;9163;48.818;8.976;2023-01-29T04:31:17;-1.50;99.90
15937;DHT22;9163;48.818;8.976;2023-01-29T04:34:00;-1.50;99.90
15937;DHT22;9163;48.818;8.976;2023-01-29T04:36:35;-1.50;99.90
15937;DHT22;9163;48.818;8.976;2023-01-29T04:39:10;-1.50;99.90
15937;DHT22;9163;48.818;8.976;2023-01-29T04:41:46;-1.50;99.90
15937;DHT22;9163;48.818;8.976;2023-01-29T04:44:19;-1.50;99.90
15937;DHT22;9163;48.818;8.976;2023-01-29T04:46:51;-1.50;99.90
15937;DHT22;9163;48.818;8.976;2023-01-29T04:49:28;-1.50;99.90
15937;DHT22;9163;48.818;8.976;2023-01-29T04:52:04;-1.50;99.90
15937;DHT22;9163;48.818;8.976;2023-01-29T04:54:44;-1.60;99.90
15937;DHT22;9163;48.818;8.976;2023-01-29T04:57:19;-1.60;99.90
15937;DHT22;9163;48.818;8.976;2023-01-29T04:59:55;-1.60;99.90
15937;DHT22;9163;48.818;8.976;2023-01-29T05:02:23;-1.60;99.90
15937;DHT22;9163;48.818;8.976;2023-01-29T05:04:55;-1.50;99.90
15937;DHT22;9163;48.818;8.976;2023-01-29T05:07:25;-1.60;99.90
15937;DHT22;9163;48.818;8.976;2023-01-29T05:09:53;-1.60;99.90
15937;DHT22;9163;48.818;8.976;2023-01-29T05:12:22;-1.50;99.90
15937;DHT22;9163;48.818;8.976;2023-01-29T05:14:52;-1.60;99.90
15937;DHT22;9163;48.818;8.976;2023-01-29T05:17:21;-1.60;99.90
15937;DHT22;9163;48.818;8.976;2023-01-29T05:19:49;-1.60;99.90
15937;DHT22;9163;48.818;8.976;2023-01-29T05:22:18;-1.60;99.90
15937;DHT22;9163;48.818;8.976;2023-01-29T05:24:48;-1.60;99.90
15937;DHT22;9163;48.818;8.976;2023-01-29T05:27:18;-1.60;99.90
15937;DHT22;9163;48.818;8.976;2023-01-29T05:30:04;-1.60;99.90
15937;DHT22;9163;48.818;8.976;2023-01-29T05:32:32;-1.60;99.90
15937;DHT22;9163;48.818;8.976;2023-01-29T05:34:59;-1.60;99.90
15937;DHT22;9163;48.818;8.976;2023-01-29T05:37:27;-1.60;99.90
15937;DHT22;9163;48.818;8.976;2023-01-29T05:39:55;-1.60;99.90
15937;DHT22;9163;48.818;8.976;2023-01-29T05:42:22;-1.50;99.90
15937;DHT22;9163;48.818;8.976;2023-01-29T05:44:49;-1.50;99.90
15937;DHT22;9163;48.818;8.976;2023-01-29T05:47:18;-1.40;99.90
15937;DHT22;9163;48.818;8.976;2023-01-29T05:49:45;-1.50;99.90
15937;DHT22;9163;48.818;8.976;2023-01-29T05:52:12;-1.60;99.90
15937;DHT22;9163;48.818;8.976;2023-01-29T05:54:41;-1.50;99.90
15937;DHT22;9163;48.818;8.976;2023-01-29T05:57:08;-1.60;99.90
15937;DHT22;9163;48.818;8.976;2023-01-29T05:59:35;-1.60;99.90
15937;DHT22;9163;48.818;8.976;2023-01-29T06:02:02;-1.60;99.90
15937;DHT22;9163;48.818;8.976;2023-01-29T06:04:30;-1.60;99.90
15937;DHT22;9163;48.818;8.976;2023-01-29T06:06:57;-1.60;99.90
15937;DHT22;9163;48.818;8.976;2023-01-29T06:09:24;-1.70;99.90
15937;DHT22;9163;48.818;8.976;2023-01-29T06:11:53;-1.70;99.90
15937;DHT22;9163;48.818;8.976;2023-01-29T06:14:20;-1.70;99.90
15937;DHT22;9163;48.818;8.976;2023-01-29T06:16:47;-1.70;99.90
15937;DHT22;9163;48.818;8.976;2023-01-29T06:19:15;-1.60;99.90
15937;DHT22;9163;48.818;8.976;2023-01-29T06:21:43;-1.70;99.90
15937;DHT22;9163;48.818;8.976;2023-01-29T06:24:10;-1.70;99.90
15937;DHT22;9163;48.818;8.976;2023-01-29T06:26:37;-1.70;99.90
15937;DHT22;9163;48.818;8.976;2023-01-29T06:29:06;-1.60;99.90
15937;DHT22;9163;48.818;8.976;2023-01-29T06:31:33;-1.60;99.90
15937;DHT22;9163;48.818;8.976;2023-01-29T06:34:00;-1.70;99.90
15937;DHT22;9163;48.818;8.976;2023-01-29T06:36:28;-1.70;99.90
15937;DHT22;9163;48.818;8.976;2023-01-29T06:38:56;-1.70;99.90
15937;DHT22;9163;48.818;8.976;2023-01-29T06:41:23;-1.70;99.90
15937;DHT22;9163;48.818;8.976;2023-01-29T06:43:51;-1.60;99.90
15937;DHT22;9163;48.818;8.976;2023-01-29T06:46:19;-1.70;99.90
15937;DHT22;9163;48.818;8.976;2023-01-29T06:48:46;-1.70;99.90
15937;DHT22;9163;48.818;8.976;2023-01-29T06:51:14;-1.60;99.90
15937;DHT22;9163;48.818;8.976;2023-01-29T06:53:41;-1.70;99.90
15937;DHT22;9163;48.818;8.976;2023-01-29T06:56:08;-1.70;99.90
15937;DHT22;9163;48.818;8.976;2023-01-29T06:58:36;-1.70;99.90
15937;DHT22;9163;48.818;8.976;2023-01-29T07:01:04;-1.70;99.90
15937;DHT22;9163;48.818;8.976;2023-01-29T07:03:33;-1.70;99.90
15937;DHT22;9163;48.818;8.976;2023-01-29T07:06:01;-1.70;99.90
15937;DHT22;9163;48.818;8.976;2023-01-29T07:08:28;-1.70;99.90
15937;DHT22;9163;48.818;8.976;2023-01-29T07:10:58;-1.70;99.90
15937;DHT22;9163;48.818;8.976;2023-01-29T07:13:25;-1.70;99.90
15937;DHT22;9163;48.818;8.976;2023-01-29T07:15:53;-1.70;99.90
15937;DHT22;9163;48.818;8.976;2023-01-29T07:18:20;-1.60;99.90
15937;DHT22;9163;48.818;8.976;2023-01-29T07:20:49;-1.60;99.90
15937;DHT22;9163;48.818;8.976;2023-01-29T07:23:16;-1.60;99.90
15937;DHT22;9163;48.818;8.976;2023-01-29T07:25:44;-1.60;99.90
15937;DHT22;9163;48.818;8.976;2023-01-29T07:28:11;-1.60;99.90
15937;DHT22;9163;48.818;8.976;2023-01-29T07:30:38;-1.60;99.90
15937;DHT22;9163;48.818;8.976;2023-01-29T07:33:07;-1.60;99.90
15937;DHT22;9163;48.818;8.976;2023-01-29T07:35:36;-1.60;99.90
15937;DHT22;9163;48.818;8.976;2023-01-29T07:38:05;-1.60;99.90
15937;DHT22;9163;48.818;8.976;2023-01-29T07:40:32;-1.50;99.90
15937;DHT22;9163;48.818;8.976;2023-01-29T07:43:01;-1.50;99.90
15937;DHT22;9163;48.818;8.976;2023-01-29T07:45:28;-1.50;99.90
15937;DHT22;9163;48.818;8.976;2023-01-29T07:47:56;-1.40;99.90
15937;DHT22;9163;48.818;8.976;2023-01-29T07:50:24;-1.40;99.90
15937;DHT22;9163;48.818;8.976;2023-01-29T07:52:53;-1.40;99.90
15937;DHT22;9163;48.818;8.976;2023-01-29T07:55:22;-1.30;99.90
15937;DHT22;9163;48.818;8.976;2023-01-29T07:57:54;-1.30;99.90
15937;DHT22;9163;48.818;8.976;2023-01-29T08:00:22;-1.20;99.90
15937;DHT22;9163;48.818;8.976;2023-01-29T08:02:49;-1.20;99.90
15937;DHT22;9163;48.818;8.976;2023-01-29T08:05:17;-1.10;99.90
15937;DHT22;9163;48.818;8.976;2023-01-29T08:07:44;-1.10;99.90
15937;DHT22;9163;48.818;8.976;2023-01-29T08:10:11;-1.10;99.90
15937;DHT22;9163;48.818;8.976;2023-01-29T08:12:40;-1.10;99.90
15937;DHT22;9163;48.818;8.976;2023-01-29T08:15:08;-1.00;99.90
15937;DHT22;9163;48.818;8.976;2023-01-29T08:17:35;-1.00;99.90
15937;DHT22;9163;48.818;8.976;2023-01-29T08:20:05;-1.00;99.90
15937;DHT22;9163;48.818;8.976;2023-01-29T08:22:33;-1.10;99.90
15937;DHT22;9163;48.818;8.976;2023-01-29T08:25:00;-1.10;99.90
15937;DHT22;9163;48.818;8.976;2023-01-29T08:27:27;-1.10;99.90
15937;DHT22;9163;48.818;8.976;2023-01-29T08:29:55;-1.10;99.90
15937;DHT22;9163;48.818;8.976;2023-01-29T08:32:23;-1.00;99.90
15937;DHT22;9163;48.818;8.976;2023-01-29T08:34:50;-0.90;99.90
15937;DHT22;9163;48.818;8.976;2023-01-29T08:37:17;-0.90;99.90
15937;DHT22;9163;48.818;8.976;2023-01-29T08:39:44;-0.90;99.90
15937;DHT22;9163;48.818;8.976;2023-01-29T08:42:12;-0.80;99.90
15937;DHT22;9163;48.818;8.976;2023-01-29T08:44:39;-0.80;99.90
15937;DHT22;9163;48.818;8.976;2023-01-29T08:47:07;-0.70;99.90
15937;DHT22;9163;48.818;8.976;2023-01-29T08:49:35;-0.70;99.90
15937;DHT22;9163;48.818;8.976;2023-01-29T08:52:02;-0.60;99.90
15937;DHT22;9163;48.818;8.976;2023-01-29T08:54:29;-0.50;99.90
15937;DHT22;9163;48.818;8.976;2023-01-29T08:56:56;-0.50;99.90
15937;DHT22;9163;48.818;8.976;2023-01-29T08:59:24;-0.70;99.90
15937;DHT22;9163;48.818;8.976;2023-01-29T09:01:51;-0.60;99.90
15937;DHT22;9163;48.818;8.976;2023-01-29T09:04:19;-0.50;99.90
15937;DHT22;9163;48.818;8.976;2023-01-29T09:06:47;-0.40;99.90
15937;DHT22;9163;48.818;8.976;2023-01-29T09:09:14;-0.40;99.90
15937;DHT22;9163;48.818;8.976;2023-01-29T09:11:41;-0.40;99.90
15937;DHT22;9163;48.818;8.976;2023-01-29T09:14:09;-0.40;99.90
15937;DHT22;9163;48.818;8.976;2023-01-29T09:16:37;-0.40;99.90
15937;DHT22;9163;48.818;8.976;2023-01-29T09:19:04;-0.40;99.90
15937;DHT22;9163;48.818;8.976;2023-01-29T09:21:34;-0.70;99.90
15937;DHT22;9163;48.818;8.976;2023-01-29T09:24:01;-0.60;99.90
15937;DHT22;9163;48.818;8.976;2023-01-29T09:26:29;-0.50;99.90
15937;DHT22;9163;48.818;8.976;2023-01-29T09:28:56;-0.50;99.90
15937;DHT22;9163;48.818;8.976;2023-01-29T09:31:23;-0.40;99.90
15937;DHT22;9163;48.818;8.976;2023-01-29T09:33:50;-0.50;99.90
15937;DHT22;9163;48.818;8.976;2023-01-29T09:36:17;-0.30;99.90
15937;DHT22;9163;48.818;8.976;2023-01-29T09:38:46;-0.20;99.90
15937;DHT22;9163;48.818;8.976;2023-01-29T09:41:27;-0.10;99.90
15937;DHT22;9163;48.818;8.976;2023-01-29T09:44:01;-0.20;99.90
15937;DHT22;9163;48.818;8.976;2023-01-29T09:46:34;-0.10;99.90
15937;DHT22;9163;48.818;8.976;2023-01-29T09:49:06;-0.20;99.90
15937;DHT22;9163;48.818;8.976;2023-01-29T09:51:39;-0.10;99.90
15937;DHT22;9163;48.818;8.976;2023-01-29T09:54:17;-0.30;99.90
15937;DHT22;9163;48.818;8.976;2023-01-29T09:56:45;-0.20;99.90
15937;DHT22;9163;48.818;8.976;2023-01-29T09:59:16;-0.20;99.90
15937;DHT22;9163;48.818;8.976;2023-01-29T10:01:54;0.10;99.90
15937;DHT22;9163;48.818;8.976;2023-01-29T10:04:43;0.40;99.90
15937;DHT22;9163;48.818;8.976;2023-01-29T10:07:39;0.60;99.90
15937;DHT22;9163;48.818;8.976;2023-01-29T10:10:23;0.70;99.90
15937;DHT22;9163;48.818;8.976;2023-01-29T10:13:00;0.80;99.90
15937;DHT22;9163;48.818;8.976;2023-01-29T10:15:40;0.80;99.90
15937;DHT22;9163;48.818;8.976;2023-01-29T10:18:28;0.70;99.90
15937;DHT22;9163;48.818;8.976;2023-01-29T10:21:10;1.00;99.90
15937;DHT22;9163;48.818;8.976;2023-01-29T10:23:42;1.10;99.90
15937;DHT22;9163;48.818;8.976;2023-01-29T10:26:15;1.00;99.90
15937;DHT22;9163;48.818;8.976;2023-01-29T10:28:45;1.10;99.90
15937;DHT22;9163;48.818;8.976;2023-01-29T10:31:17;1.20;99.90
15937;DHT22;9163;48.818;8.976;2023-01-29T10:33:49;1.10;99.90
15937;DHT22;9163;48.818;8.976;2023-01-29T10:36:21;1.10;99.90
15937;DHT22;9163;48.818;8.976;2023-01-29T10:38:50;1.20;99.90
15937;DHT22;9163;48.818;8.976;2023-01-29T10:41:26;0.90;99.90
15937;DHT22;9163;48.818;8.976;2023-01-29T10:44:04;1.10;99.90
15937;DHT22;9163;48.818;8.976;2023-01-29T10:46:45;0.90;99.90
15937;DHT22;9163;48.818;8.976;2023-01-29T10:49:26;0.80;99.90
15937;DHT22;9163;48.818;8.976;2023-01-29T10:52:07;1.10;99.90
15937;DHT22;9163;48.818;8.976;2023-01-29T10:54:48;1.10;99.90
15937;DHT22;9163;48.818;8.976;2023-01-29T10:57:27;1.20;99.90
15937;DHT22;9163;48.818;8.976;2023-01-29T11:00:06;1.70;99.90
15937;DHT22;9163;48.818;8.976;2023-01-29T11:02:42;2.10;99.90
15937;DHT22;9163;48.818;8.976;2023-01-29T11:05:22;2.20;99.90
15937;DHT22;9163;48.818;8.976;2023-01-29T11:08:01;2.10;99.90
15937;DHT22;9163;48.818;8.976;2023-01-29T11:10:31;1.80;99.90
15937;DHT22;9163;48.818;8.976;2023-01-29T11:13:01;2.00;99.90
15937;DHT22;9163;48.818;8.976;2023-01-29T11:15:31;2.00;99.90
15937;DHT22;9163;48.818;8.976;2023-01-29T11:18:00;2.10;99.90
15937;DHT22;9163;48.818;8.976;2023-01-29T11:20:29;2.00;99.90
15937;DHT22;9163;48.818;8.976;2023-01-29T11:22:57;2.10;99.90
15937;DHT22;9163;48.818;8.976;2023-01-29T11:25:25;2.00;99.90
15937;DHT22;9163;48.818;8.976;2023-01-29T11:27:55;2.00;99.90
15937;DHT22;9163;48.818;8.976;2023-01-29T11:30:26;1.80;99.90
15937;DHT22;9163;48.818;8.976;2023-01-29T11:33:05;1.80;99.90
15937;DHT22;9163;48.818;8.976;2023-01-29T11:35:34;1.50;99.90
15937;DHT22;9163;48.818;8.976;2023-01-29T11:38:16;1.90;99.90
15937;DHT22;9163;48.818;8.976;2023-01-29T11:40:44;2.00;99.90
15937;DHT22;9163;48.818;8.976;2023-01-29T11:43:35;2.20;99.90
15937;DHT22;9163;48.818;8.976;2023-01-29T11:46:05;1.90;99.90
15937;DHT22;9163;48.818;8.976;2023-01-29T11:48:41;2.00;99.90
15937;DHT22;9163;48.818;8.976;2023-01-29T11:51:11;2.00;99.90
15937;DHT22;9163;48.818;8.976;2023-01-29T11:53:51;1.80;99.90
15937;DHT22;9163;48.818;8.976;2023-01-29T11:56:21;2.00;99.90
15937;DHT22;9163;48.818;8.976;2023-01-29T11:58:50;1.90;99.90
15937;DHT22;9163;48.818;8.976;2023-01-29T12:01:30;1.90;99.90
15937;DHT22;9163;48.818;8.976;2023-01-29T12:03:59;1.70;99.90
15937;DHT22;9163;48.818;8.976;2023-01-29T12:06:32;2.10;99.90
15937;DHT22;9163;48.818;8.976;2023-01-29T12:09:02;2.80;99.90
15937;DHT22;9163;48.818;8.976;2023-01-29T12:11:34;3.10;99.90
15937;DHT22;9163;48.818;8.976;2023-01-29T12:14:03;3.70;99.90
15937;DHT22;9163;48.818;8.976;2023-01-29T12:16:37;3.40;99.90
15937;DHT22;9163;48.818;8.976;2023-01-29T12:19:10;3.40;99.90
15937;DHT22;9163;48.818;8.976;2023-01-29T12:21:45;3.80;99.90
15937;DHT22;9163;48.818;8.976;2023-01-29T12:24:23;4.80;99.90
15937;DHT22;9163;48.818;8.976;2023-01-29T12:26:59;5.70;99.90
15937;DHT22;9163;48.818;8.976;2023-01-29T12:29:35;7.00;99.90
15937;DHT22;9163;48.818;8.976;2023-01-29T12:32:11;7.50;99.90
15937;DHT22;9163;48.818;8.976;2023-01-29T12:34:45;8.20;99.90
15937;DHT22;9163;48.818;8.976;2023-01-29T12:37:20;8.80;99.90
15937;DHT22;9163;48.818;8.976;2023-01-29T12:39:48;7.90;99.90
15937;DHT22;9163;48.818;8.976;2023-01-29T12:42:18;9.10;99.90
15937;DHT22;9163;48.818;8.976;2023-01-29T12:44:51;9.40;99.90
15937;DHT22;9163;48.818;8.976;2023-01-29T12:47:23;8.90;99.90
15937;DHT22;9163;48.818;8.976;2023-01-29T12:49:53;7.50;99.90
15937;DHT22;9163;48.818;8.976;2023-01-29T12:52:30;6.90;99.90
15937;DHT22;9163;48.818;8.976;2023-01-29T12:55:02;5.70;99.90
15937;DHT22;9163;48.818;8.976;2023-01-29T12:57:39;5.30;99.90
15937;DHT22;9163;48.818;8.976;2023-01-29T13:00:13;5.40;99.90
15937;DHT22;9163;48.818;8.976;2023-01-29T13:02:48;5.20;99.90
15937;DHT22;9163;48.818;8.976;2023-01-29T13:05:21;6.20;99.90
15937;DHT22;9163;48.818;8.976;2023-01-29T13:07:55;6.90;99.90
15937;DHT22;9163;48.818;8.976;2023-01-29T13:10:28;9.00;99.90
15937;DHT22;9163;48.818;8.976;2023-01-29T13:13:00;10.70;99.90
15937;DHT22;9163;48.818;8.976;2023-01-29T13:15:31;10.90;99.90
15937;DHT22;9163;48.818;8.976;2023-01-29T13:18:19;11.50;99.90
15937;DHT22;9163;48.818;8.976;2023-01-29T13:20:48;9.70;99.90
15937;DHT22;9163;48.818;8.976;2023-01-29T13:23:20;8.70;99.90
15937;DHT22;9163;48.818;8.976;2023-01-29T13:25:50;7.90;99.90
15937;DHT22;9163;48.818;8.976;2023-01-29T13:28:18;8.20;99.90
15937;DHT22;9163;48.818;8.976;2023-01-29T13:30:46;7.80;99.90
15937;DHT22;9163;48.818;8.976;2023-01-29T13:33:21;7.80;99.90
15937;DHT22;9163;48.818;8.976;2023-01-29T13:35:57;7.40;99.90
15937;DHT22;9163;48.818;8.976;2023-01-29T13:38:28;8.10;99.90
15937;DHT22;9163;48.818;8.976;2023-01-29T13:41:00;7.50;99.90
15937;DHT22;9163;48.818;8.976;2023-01-29T13:43:33;7.80;99.90
15937;DHT22;9163;48.818;8.976;2023-01-29T13:46:07;7.00;99.90
15937;DHT22;9163;48.818;8.976;2023-01-29T13:48:40;7.50;99.90
15937;DHT22;9163;48.818;8.976;2023-01-29T13:51:11;7.40;99.90
15937;DHT22;9163;48.818;8.976;2023-01-29T13:53:42;7.60;99.90
15937;DHT22;9163;48.818;8.976;2023-01-29T13:56:41;7.20;99.90
15937;DHT22;9163;48.818;8.976;2023-01-29T13:59:21;8.30;99.90
15937;DHT22;9163;48.818;8.976;2023-01-29T14:02:19;7.10;99.90
15937;DHT22;9163;48.818;8.976;2023-01-29T14:04:49;5.50;99.90
15937;DHT22;9163;48.818;8.976;2023-01-29T14:07:42;4.70;99.90
15937;DHT22;9163;48.818;8.976;2023-01-29T14:10:17;5.00;99.90
15937;DHT22;9163;48.818;8.976;2023-01-29T14:12:47;4.50;99.90
15937;DHT22;9163;48.818;8.976;2023-01-29T14:15:18;4.20;99.90
15937;DHT22;9163;48.818;8.976;2023-01-29T14:17:57;4.20;99.90
15937;DHT22;9163;48.818;8.976;2023-01-29T14:20:34;4.70;99.90
15937;DHT22;9163;48.818;8.976;2023-01-29T14:23:04;5.50;99.90
15937;DHT22;9163;48.818;8.976;2023-01-29T14:25:34;5.40;99.90
15937;DHT22;9163;48.818;8.976;2023-01-29T14:28:04;5.20;99.90
15937;DHT22;9163;48.818;8.976;2023-01-29T14:30:45;5.80;99.90
15937;DHT22;9163;48.818;8.976;2023-01-29T14:33:24;5.20;99.90
15937;DHT22;9163;48.818;8.976;2023-01-29T14:35:55;5.10;99.90
15937;DHT22;9163;48.818;8.976;2023-01-29T14:38:25;4.70;99.90
15937;DHT22;9163;48.818;8.976;2023-01-29T14:41:11;5.00;99.90
15937;DHT22;9163;48.818;8.976;2023-01-29T14:43:39;4.90;99.90
15937;DHT22;9163;48.818;8.976;2023-01-29T14:46:41;5.10;99.90
15937;DHT22;9163;48.818;8.976;2023-01-29T14:49:09;5.20;99.90
15937;DHT22;9163;48.818;8.976;2023-01-29T14:51:41;6.30;99.90
15937;DHT22;9163;48.818;8.976;2023-01-29T14:54:18;6.70;99.90
15937;DHT22;9163;48.818;8.976;2023-01-29T14:56:55;7.10;99.90
15937;DHT22;9163;48.818;8.976;2023-01-29T14:59:28;7.10;99.90
15937;DHT22;9163;48.818;8.976;2023-01-29T15:02:00;7.00;99.90
15937;DHT22;9163;48.818;8.976;2023-01-29T15:04:32;7.40;99.90
15937;DHT22;9163;48.818;8.976;2023-01-29T15:07:06;7.40;99.90
15937;DHT22;9163;48.818;8.976;2023-01-29T15:09:45;7.30;99.90
15937;DHT22;9163;48.818;8.976;2023-01-29T15:12:19;7.90;99.90
15937;DHT22;9163;48.818;8.976;2023-01-29T15:14:55;7.40;99.90
15937;DHT22;9163;48.818;8.976;2023-01-29T15:17:28;9.10;99.90
15937;DHT22;9163;48.818;8.976;2023-01-29T15:19:57;10.20;99.90
15937;DHT22;9163;48.818;8.976;2023-01-29T15:22:26;10.60;99.90
15937;DHT22;9163;48.818;8.976;2023-01-29T15:25:03;9.80;99.90
15937;DHT22;9163;48.818;8.976;2023-01-29T15:27:32;10.30;99.90
15937;DHT22;9163;48.818;8.976;2023-01-29T15:30:03;10.80;99.90
15937;DHT22;9163;48.818;8.976;2023-01-29T15:32:33;9.80;99.90
15937;DHT22;9163;48.818;8.976;2023-01-29T15:35:07;9.60;99.90
15937;DHT22;9163;48.818;8.976;2023-01-29T15:37:36;9.60;99.90
15937;DHT22;9163;48.818;8.976;2023-01-29T15:40:12;8.40;99.90
15937;DHT22;9163;48.818;8.976;2023-01-29T15:42:42;6.90;99.90
15937;DHT22;9163;48.818;8.976;2023-01-29T15:45:24;7.80;99.90
15937;DHT22;9163;48.818;8.976;2023-01-29T15:47:57;7.70;99.90
15937;DHT22;9163;48.818;8.976;2023-01-29T15:50:26;7.50;99.90
15937;DHT22;9163;48.818;8.976;2023-01-29T15:52:58;7.10;99.90
15937;DHT22;9163;48.818;8.976;2023-01-29T15:55:29;6.90;99.90
15937;DHT22;9163;48.818;8.976;2023-01-29T15:57:58;6.30;99.90
15937;DHT22;9163;48.818;8.976;2023-01-29T16:00:27;5.50;99.90
15937;DHT22;9163;48.818;8.976;2023-01-29T16:02:55;6.00;99.90
15937;DHT22;9163;48.818;8.976;2023-01-29T16:05:26;5.60;99.90
15937;DHT22;9163;48.818;8.976;2023-01-29T16:07:56;4.80;99.90
15937;DHT22;9163;48.818;8.976;2023-01-29T16:10:25;4.20;99.90
15937;DHT22;9163;48.818;8.976;2023-01-29T16:12:53;3.50;99.90
15937;DHT22;9163;48.818;8.976;2023-01-29T16:15:27;3.20;99.90
15937;DHT22;9163;48.818;8.976;2023-01-29T16:17:56;2.50;99.90
15937;DHT22;9163;48.818;8.976;2023-01-29T16:20:40;2.00;99.90
15937;DHT22;9163;48.818;8.976;2023-01-29T16:23:17;1.90;99.90
15937;DHT22;9163;48.818;8.976;2023-01-29T16:25:47;1.40;99.90